sensor_id;sensor_type;location;lat;lon;timestamp;P1;durP1;ratioP1;P2;durP2;ratioP2
7128;SDS011;3606;52.930;8.644;2023-04-25T00:01:59;11.27;;;4.37;;
7128;SDS011;3606;52.930;8.644;2023-04-25T00:04:25;9.93;;;4.13;;
7128;SDS011;3606;52.930;8.644;2023-04-25T00:06:52;10.97;;;3.93;;
7128;SDS011;3606;52.930;8.644;2023-04-25T00:09:19;8.57;;;3.87;;
7128;SDS011;3606;52.930;8.644;2023-04-25T00:11:44;18.83;;;4.90;;
7128;SDS011;3606;52.930;8.644;2023-04-25T00:14:10;15.03;;;4.97;;
7128;SDS011;3606;52.930;8.644;2023-04-25T00:16:36;10.40;;;4.60;;
7128;SDS011;3606;52.930;8.644;2023-04-25T00:19:01;15.67;;;5.03;;
7128;SDS011;3606;52.930;8.644;2023-04-25T00:21:27;16.60;;;4.73;;
7128;SDS011;3606;52.930;8.644;2023-04-25T00:23:53;15.40;;;5.43;;
7128;SDS011;3606;52.930;8.644;2023-04-25T00:26:19;24.03;;;5.17;;
7128;SDS011;3606;52.930;8.644;2023-04-25T00:28:46;14.50;;;4.60;;
7128;SDS011;3606;52.930;8.644;2023-04-25T00:31:12;14.77;;;5.13;;
7128;SDS011;3606;52.930;8.644;2023-04-25T00:33:38;16.10;;;5.07;;
7128;SDS011;3606;52.930;8.644;2023-04-25T00:36:03;27.13;;;5.50;;
7128;SDS011;3606;52.930;8.644;2023-04-25T00:38:30;14.47;;;4.80;;
7128;SDS011;3606;52.930;8.644;2023-04-25T00:40:55;13.40;;;4.80;;
7128;SDS011;3606;52.930;8.644;2023-04-25T00:43:22;18.03;;;5.57;;
7128;SDS011;3606;52.930;8.644;2023-04-25T00:45:51;14.87;;;6.00;;
7128;SDS011;3606;52.930;8.644;2023-04-25T00:48:18;13.07;;;5.07;;
7128;SDS011;3606;52.930;8.644;2023-04-25T00:50:58;15.77;;;5.60;;
7128;SDS011;3606;52.930;8.644;2023-04-25T00:53:25;15.33;;;5.13;;
7128;SDS011;3606;52.930;8.644;2023-04-25T00:55:52;21.03;;;5.53;;
7128;SDS011;3606;52.930;8.644;2023-04-25T00:58:18;16.30;;;5.53;;
7128;SDS011;3606;52.930;8.644;2023-04-25T01:00:45;18.70;;;5.33;;
7128;SDS011;3606;52.930;8.644;2023-04-25T01:03:15;14.17;;;5.17;;
7128;SDS011;3606;52.930;8.644;2023-04-25T01:05:42;20.20;;;5.17;;
7128;SDS011;3606;52.930;8.644;2023-04-25T01:08:08;15.03;;;5.40;;
7128;SDS011;3606;52.930;8.644;2023-04-25T01:10:35;21.07;;;4.80;;
7128;SDS011;3606;52.930;8.644;2023-04-25T01:13:01;12.20;;;5.20;;
7128;SDS011;3606;52.930;8.644;2023-04-25T01:15:27;17.27;;;5.20;;
7128;SDS011;3606;52.930;8.644;2023-04-25T01:17:52;24.73;;;6.23;;
7128;SDS011;3606;52.930;8.644;2023-04-25T01:20:20;17.03;;;5.70;;
7128;SDS011;3606;52.930;8.644;2023-04-25T01:22:48;17.10;;;5.33;;
7128;SDS011;3606;52.930;8.644;2023-04-25T01:25:15;16.50;;;4.80;;
7128;SDS011;3606;52.930;8.644;2023-04-25T01:27:41;22.10;;;6.27;;
7128;SDS011;3606;52.930;8.644;2023-04-25T01:30:07;15.63;;;5.87;;
7128;SDS011;3606;52.930;8.644;2023-04-25T01:32:33;19.83;;;5.77;;
7128;SDS011;3606;52.930;8.644;2023-04-25T01:35:06;20.17;;;4.90;;
7128;SDS011;3606;52.930;8.644;2023-04-25T01:37:41;13.83;;;5.07;;
7128;SDS011;3606;52.930;8.644;2023-04-25T01:40:08;20.17;;;5.67;;
7128;SDS011;3606;52.930;8.644;2023-04-25T01:42:35;15.10;;;4.93;;
7128;SDS011;3606;52.930;8.644;2023-04-25T01:45:03;14.50;;;4.77;;
7128;SDS011;3606;52.930;8.644;2023-04-25T01:47:29;19.03;;;5.67;;
7128;SDS011;3606;52.930;8.644;2023-04-25T01:49:55;16.70;;;5.37;;
7128;SDS011;3606;52.930;8.644;2023-04-25T01:52:20;17.73;;;5.70;;
7128;SDS011;3606;52.930;8.644;2023-04-25T01:54:46;24.53;;;5.50;;
7128;SDS011;3606;52.930;8.644;2023-04-25T01:57:12;24.70;;;5.67;;
7128;SDS011;3606;52.930;8.644;2023-04-25T01:59:38;21.83;;;5.80;;
7128;SDS011;3606;52.930;8.644;2023-04-25T02:02:05;25.30;;;5.67;;
7128;SDS011;3606;52.930;8.644;2023-04-25T02:04:31;19.80;;;5.70;;
7128;SDS011;3606;52.930;8.644;2023-04-25T02:06:57;21.43;;;5.87;;
7128;SDS011;3606;52.930;8.644;2023-04-25T02:09:23;14.80;;;4.63;;
7128;SDS011;3606;52.930;8.644;2023-04-25T02:11:48;22.30;;;4.93;;
7128;SDS011;3606;52.930;8.644;2023-04-25T02:14:14;27.03;;;6.20;;
7128;SDS011;3606;52.930;8.644;2023-04-25T02:16:40;16.60;;;4.97;;
7128;SDS011;3606;52.930;8.644;2023-04-25T02:19:05;13.17;;;5.23;;
7128;SDS011;3606;52.930;8.644;2023-04-25T02:21:31;12.33;;;5.13;;
7128;SDS011;3606;52.930;8.644;2023-04-25T02:24:00;20.07;;;5.53;;
7128;SDS011;3606;52.930;8.644;2023-04-25T02:26:26;21.83;;;5.57;;
7128;SDS011;3606;52.930;8.644;2023-04-25T02:28:51;21.20;;;5.83;;
7128;SDS011;3606;52.930;8.644;2023-04-25T02:31:17;22.17;;;5.10;;
7128;SDS011;3606;52.930;8.644;2023-04-25T02:33:43;13.67;;;5.00;;
7128;SDS011;3606;52.930;8.644;2023-04-25T02:36:08;24.10;;;5.73;;
7128;SDS011;3606;52.930;8.644;2023-04-25T02:38:34;18.03;;;4.50;;
7128;SDS011;3606;52.930;8.644;2023-04-25T02:41:00;23.77;;;5.37;;
7128;SDS011;3606;52.930;8.644;2023-04-25T02:43:25;17.57;;;5.20;;
7128;SDS011;3606;52.930;8.644;2023-04-25T02:45:51;16.83;;;5.13;;
7128;SDS011;3606;52.930;8.644;2023-04-25T02:48:17;21.00;;;4.80;;
7128;SDS011;3606;52.930;8.644;2023-04-25T02:50:42;16.60;;;6.03;;
7128;SDS011;3606;52.930;8.644;2023-04-25T02:53:08;11.80;;;4.80;;
7128;SDS011;3606;52.930;8.644;2023-04-25T02:55:34;19.90;;;4.90;;
7128;SDS011;3606;52.930;8.644;2023-04-25T02:57:59;19.23;;;5.37;;
7128;SDS011;3606;52.930;8.644;2023-04-25T03:00:25;12.67;;;4.87;;
7128;SDS011;3606;52.930;8.644;2023-04-25T03:02:50;15.77;;;4.70;;
7128;SDS011;3606;52.930;8.644;2023-04-25T03:05:16;14.47;;;4.67;;
7128;SDS011;3606;52.930;8.644;2023-04-25T03:07:42;22.23;;;5.00;;
7128;SDS011;3606;52.930;8.644;2023-04-25T03:10:09;23.47;;;5.13;;
7128;SDS011;3606;52.930;8.644;2023-04-25T03:12:35;17.50;;;4.87;;
7128;SDS011;3606;52.930;8.644;2023-04-25T03:15:01;14.90;;;4.10;;
7128;SDS011;3606;52.930;8.644;2023-04-25T03:17:27;12.53;;;4.30;;
7128;SDS011;3606;52.930;8.644;2023-04-25T03:19:53;13.53;;;4.43;;
7128;SDS011;3606;52.930;8.644;2023-04-25T03:22:18;17.50;;;4.70;;
7128;SDS011;3606;52.930;8.644;2023-04-25T03:24:44;25.33;;;4.93;;
7128;SDS011;3606;52.930;8.644;2023-04-25T03:27:09;14.13;;;4.13;;
7128;SDS011;3606;52.930;8.644;2023-04-25T03:29:35;14.47;;;4.70;;
7128;SDS011;3606;52.930;8.644;2023-04-25T03:32:01;19.43;;;5.33;;
7128;SDS011;3606;52.930;8.644;2023-04-25T03:34:26;16.07;;;4.20;;
7128;SDS011;3606;52.930;8.644;2023-04-25T03:36:53;15.60;;;4.70;;
7128;SDS011;3606;52.930;8.644;2023-04-25T03:39:18;13.23;;;4.30;;
7128;SDS011;3606;52.930;8.644;2023-04-25T03:41:44;17.73;;;4.60;;
7128;SDS011;3606;52.930;8.644;2023-04-25T03:44:09;12.53;;;4.13;;
7128;SDS011;3606;52.930;8.644;2023-04-25T03:46:35;12.83;;;4.07;;
7128;SDS011;3606;52.930;8.644;2023-04-25T03:49:00;16.33;;;4.30;;
7128;SDS011;3606;52.930;8.644;2023-04-25T03:51:26;18.13;;;4.63;;
7128;SDS011;3606;52.930;8.644;2023-04-25T03:53:52;16.03;;;4.30;;
7128;SDS011;3606;52.930;8.644;2023-04-25T03:56:18;15.53;;;4.10;;
7128;SDS011;3606;52.930;8.644;2023-04-25T03:58:43;17.30;;;4.57;;
7128;SDS011;3606;52.930;8.644;2023-04-25T04:01:09;17.83;;;4.27;;
7128;SDS011;3606;52.930;8.644;2023-04-25T04:03:35;12.07;;;4.30;;
7128;SDS011;3606;52.930;8.644;2023-04-25T04:06:01;12.27;;;4.27;;
7128;SDS011;3606;52.930;8.644;2023-04-25T04:08:29;13.27;;;4.27;;
7128;SDS011;3606;52.930;8.644;2023-04-25T04:10:55;12.20;;;4.57;;
7128;SDS011;3606;52.930;8.644;2023-04-25T04:13:21;11.47;;;4.00;;
7128;SDS011;3606;52.930;8.644;2023-04-25T04:15:47;23.73;;;4.70;;
7128;SDS011;3606;52.930;8.644;2023-04-25T04:18:12;9.90;;;3.57;;
7128;SDS011;3606;52.930;8.644;2023-04-25T04:20:38;12.47;;;4.23;;
7128;SDS011;3606;52.930;8.644;2023-04-25T04:23:04;10.20;;;3.77;;
7128;SDS011;3606;52.930;8.644;2023-04-25T04:25:30;12.73;;;4.10;;
7128;SDS011;3606;52.930;8.644;2023-04-25T04:27:56;11.13;;;4.00;;
7128;SDS011;3606;52.930;8.644;2023-04-25T04:30:22;20.03;;;4.13;;
7128;SDS011;3606;52.930;8.644;2023-04-25T04:32:54;19.57;;;4.23;;
7128;SDS011;3606;52.930;8.644;2023-04-25T04:35:21;14.40;;;4.80;;
7128;SDS011;3606;52.930;8.644;2023-04-25T04:37:47;11.03;;;4.37;;
7128;SDS011;3606;52.930;8.644;2023-04-25T04:40:13;14.33;;;4.80;;
7128;SDS011;3606;52.930;8.644;2023-04-25T04:42:41;8.60;;;3.53;;
7128;SDS011;3606;52.930;8.644;2023-04-25T04:45:07;15.30;;;4.00;;
7128;SDS011;3606;52.930;8.644;2023-04-25T04:47:33;12.60;;;4.53;;
7128;SDS011;3606;52.930;8.644;2023-04-25T04:49:59;21.57;;;4.33;;
7128;SDS011;3606;52.930;8.644;2023-04-25T04:52:24;15.87;;;4.23;;
7128;SDS011;3606;52.930;8.644;2023-04-25T04:54:50;14.30;;;4.10;;
7128;SDS011;3606;52.930;8.644;2023-04-25T04:57:15;12.27;;;3.93;;
7128;SDS011;3606;52.930;8.644;2023-04-25T04:59:44;11.07;;;3.70;;
7128;SDS011;3606;52.930;8.644;2023-04-25T05:02:09;13.40;;;4.03;;
7128;SDS011;3606;52.930;8.644;2023-04-25T05:04:35;8.50;;;3.73;;
7128;SDS011;3606;52.930;8.644;2023-04-25T05:07:01;8.53;;;3.57;;
7128;SDS011;3606;52.930;8.644;2023-04-25T05:09:26;11.03;;;3.80;;
7128;SDS011;3606;52.930;8.644;2023-04-25T05:11:52;12.50;;;3.77;;
7128;SDS011;3606;52.930;8.644;2023-04-25T05:14:17;13.90;;;4.37;;
7128;SDS011;3606;52.930;8.644;2023-04-25T05:16:43;9.43;;;3.90;;
7128;SDS011;3606;52.930;8.644;2023-04-25T05:19:09;18.47;;;4.53;;
7128;SDS011;3606;52.930;8.644;2023-04-25T05:21:34;20.43;;;4.17;;
7128;SDS011;3606;52.930;8.644;2023-04-25T05:24:00;12.87;;;4.30;;
7128;SDS011;3606;52.930;8.644;2023-04-25T05:26:26;13.00;;;3.90;;
7128;SDS011;3606;52.930;8.644;2023-04-25T05:28:56;14.53;;;4.17;;
7128;SDS011;3606;52.930;8.644;2023-04-25T05:31:22;10.33;;;3.90;;
7128;SDS011;3606;52.930;8.644;2023-04-25T05:33:47;12.20;;;3.90;;
7128;SDS011;3606;52.930;8.644;2023-04-25T05:36:13;15.23;;;3.47;;
7128;SDS011;3606;52.930;8.644;2023-04-25T05:38:38;14.80;;;3.70;;
7128;SDS011;3606;52.930;8.644;2023-04-25T05:41:04;10.97;;;3.70;;
7128;SDS011;3606;52.930;8.644;2023-04-25T05:43:30;10.97;;;3.30;;
7128;SDS011;3606;52.930;8.644;2023-04-25T05:45:55;14.20;;;3.40;;
7128;SDS011;3606;52.930;8.644;2023-04-25T05:48:21;11.43;;;3.17;;
7128;SDS011;3606;52.930;8.644;2023-04-25T05:50:47;11.67;;;3.47;;
7128;SDS011;3606;52.930;8.644;2023-04-25T05:53:12;11.63;;;3.17;;
7128;SDS011;3606;52.930;8.644;2023-04-25T05:55:38;7.90;;;2.97;;
7128;SDS011;3606;52.930;8.644;2023-04-25T05:58:05;9.13;;;2.80;;
7128;SDS011;3606;52.930;8.644;2023-04-25T06:00:32;10.57;;;3.00;;
7128;SDS011;3606;52.930;8.644;2023-04-25T06:02:57;7.67;;;3.20;;
7128;SDS011;3606;52.930;8.644;2023-04-25T06:05:23;10.67;;;3.20;;
7128;SDS011;3606;52.930;8.644;2023-04-25T06:07:48;9.53;;;3.40;;
7128;SDS011;3606;52.930;8.644;2023-04-25T06:10:14;7.20;;;3.20;;
7128;SDS011;3606;52.930;8.644;2023-04-25T06:12:40;9.00;;;2.80;;
7128;SDS011;3606;52.930;8.644;2023-04-25T06:15:05;11.70;;;3.47;;
7128;SDS011;3606;52.930;8.644;2023-04-25T06:17:32;9.03;;;3.20;;
7128;SDS011;3606;52.930;8.644;2023-04-25T06:19:58;10.60;;;3.17;;
7128;SDS011;3606;52.930;8.644;2023-04-25T06:22:23;9.37;;;2.90;;
7128;SDS011;3606;52.930;8.644;2023-04-25T06:24:49;6.60;;;2.73;;
7128;SDS011;3606;52.930;8.644;2023-04-25T06:27:14;12.83;;;3.30;;
7128;SDS011;3606;52.930;8.644;2023-04-25T06:29:40;7.67;;;3.07;;
7128;SDS011;3606;52.930;8.644;2023-04-25T06:32:05;7.53;;;2.67;;
7128;SDS011;3606;52.930;8.644;2023-04-25T06:34:31;8.33;;;2.70;;
7128;SDS011;3606;52.930;8.644;2023-04-25T06:36:56;6.90;;;2.83;;
7128;SDS011;3606;52.930;8.644;2023-04-25T06:39:22;6.23;;;2.00;;
7128;SDS011;3606;52.930;8.644;2023-04-25T06:41:49;10.07;;;3.03;;
7128;SDS011;3606;52.930;8.644;2023-04-25T06:44:15;13.77;;;2.80;;
7128;SDS011;3606;52.930;8.644;2023-04-25T06:46:40;7.33;;;2.57;;
7128;SDS011;3606;52.930;8.644;2023-04-25T06:49:06;10.50;;;2.73;;
7128;SDS011;3606;52.930;8.644;2023-04-25T06:51:32;4.40;;;2.17;;
7128;SDS011;3606;52.930;8.644;2023-04-25T06:53:57;3.90;;;2.40;;
7128;SDS011;3606;52.930;8.644;2023-04-25T06:56:23;9.87;;;2.67;;
7128;SDS011;3606;52.930;8.644;2023-04-25T06:58:49;8.00;;;2.10;;
7128;SDS011;3606;52.930;8.644;2023-04-25T07:01:15;6.47;;;2.63;;
7128;SDS011;3606;52.930;8.644;2023-04-25T07:03:40;6.33;;;2.20;;
7128;SDS011;3606;52.930;8.644;2023-04-25T07:06:06;6.97;;;2.47;;
7128;SDS011;3606;52.930;8.644;2023-04-25T07:08:32;4.97;;;2.27;;
7128;SDS011;3606;52.930;8.644;2023-04-25T07:10:57;4.93;;;2.07;;
7128;SDS011;3606;52.930;8.644;2023-04-25T07:13:23;7.07;;;2.43;;
7128;SDS011;3606;52.930;8.644;2023-04-25T07:15:48;10.17;;;2.50;;
7128;SDS011;3606;52.930;8.644;2023-04-25T07:18:14;9.43;;;2.50;;
7128;SDS011;3606;52.930;8.644;2023-04-25T07:20:40;5.00;;;2.20;;
7128;SDS011;3606;52.930;8.644;2023-04-25T07:23:05;6.10;;;2.30;;
7128;SDS011;3606;52.930;8.644;2023-04-25T07:25:31;6.30;;;2.43;;
7128;SDS011;3606;52.930;8.644;2023-04-25T07:27:57;7.20;;;2.70;;
7128;SDS011;3606;52.930;8.644;2023-04-25T07:30:23;14.13;;;2.70;;
7128;SDS011;3606;52.930;8.644;2023-04-25T07:32:49;10.63;;;2.50;;
7128;SDS011;3606;52.930;8.644;2023-04-25T07:35:15;8.57;;;2.70;;
7128;SDS011;3606;52.930;8.644;2023-04-25T07:37:41;7.93;;;2.60;;
7128;SDS011;3606;52.930;8.644;2023-04-25T07:40:07;13.03;;;2.43;;
7128;SDS011;3606;52.930;8.644;2023-04-25T07:59:34;8.30;;;2.03;;
7128;SDS011;3606;52.930;8.644;2023-04-25T08:02:00;7.77;;;2.30;;
7128;SDS011;3606;52.930;8.644;2023-04-25T08:04:27;4.30;;;2.67;;
7128;SDS011;3606;52.930;8.644;2023-04-25T08:06:52;7.87;;;2.60;;
7128;SDS011;3606;52.930;8.644;2023-04-25T08:09:21;5.73;;;2.60;;
7128;SDS011;3606;52.930;8.644;2023-04-25T08:11:47;6.67;;;1.97;;
7128;SDS011;3606;52.930;8.644;2023-04-25T08:14:13;6.20;;;2.07;;
7128;SDS011;3606;52.930;8.644;2023-04-25T08:16:38;9.80;;;2.27;;
7128;SDS011;3606;52.930;8.644;2023-04-25T08:19:04;4.80;;;2.17;;
7128;SDS011;3606;52.930;8.644;2023-04-25T08:21:30;3.73;;;1.70;;
7128;SDS011;3606;52.930;8.644;2023-04-25T08:23:56;5.47;;;1.80;;
7128;SDS011;3606;52.930;8.644;2023-04-25T08:26:23;10.93;;;2.70;;
7128;SDS011;3606;52.930;8.644;2023-04-25T08:28:49;3.30;;;2.07;;
7128;SDS011;3606;52.930;8.644;2023-04-25T08:31:15;5.40;;;2.20;;
7128;SDS011;3606;52.930;8.644;2023-04-25T08:33:41;9.65;;;2.60;;
7128;SDS011;3606;52.930;8.644;2023-04-25T08:36:07;9.07;;;2.27;;
7128;SDS011;3606;52.930;8.644;2023-04-25T08:38:33;6.67;;;2.03;;
7128;SDS011;3606;52.930;8.644;2023-04-25T08:40:59;8.10;;;2.33;;
7128;SDS011;3606;52.930;8.644;2023-04-25T08:43:25;7.20;;;2.90;;
7128;SDS011;3606;52.930;8.644;2023-04-25T08:45:53;3.47;;;2.00;;
7128;SDS011;3606;52.930;8.644;2023-04-25T08:48:22;10.43;;;2.40;;
7128;SDS011;3606;52.930;8.644;2023-04-25T08:50:52;9.77;;;2.07;;
7128;SDS011;3606;52.930;8.644;2023-04-25T08:53:22;5.57;;;2.23;;
7128;SDS011;3606;52.930;8.644;2023-04-25T08:55:52;7.67;;;2.40;;
7128;SDS011;3606;52.930;8.644;2023-04-25T08:58:20;4.57;;;1.97;;
7128;SDS011;3606;52.930;8.644;2023-04-25T09:00:46;4.57;;;1.60;;
7128;SDS011;3606;52.930;8.644;2023-04-25T09:03:13;8.33;;;2.47;;
7128;SDS011;3606;52.930;8.644;2023-04-25T09:05:40;8.47;;;2.20;;
7128;SDS011;3606;52.930;8.644;2023-04-25T09:08:06;6.07;;;2.30;;
7128;SDS011;3606;52.930;8.644;2023-04-25T09:10:32;5.10;;;2.00;;
7128;SDS011;3606;52.930;8.644;2023-04-25T09:13:20;5.47;;;2.43;;
7128;SDS011;3606;52.930;8.644;2023-04-25T09:15:54;5.90;;;2.30;;
7128;SDS011;3606;52.930;8.644;2023-04-25T09:18:24;7.40;;;2.20;;
7128;SDS011;3606;52.930;8.644;2023-04-25T09:20:51;4.63;;;1.73;;
7128;SDS011;3606;52.930;8.644;2023-04-25T09:23:18;5.67;;;2.00;;
7128;SDS011;3606;52.930;8.644;2023-04-25T09:25:47;5.40;;;2.33;;
7128;SDS011;3606;52.930;8.644;2023-04-25T09:28:13;9.27;;;2.00;;
7128;SDS011;3606;52.930;8.644;2023-04-25T09:30:39;6.17;;;2.10;;
7128;SDS011;3606;52.930;8.644;2023-04-25T09:33:13;3.27;;;1.90;;
7128;SDS011;3606;52.930;8.644;2023-04-25T09:35:40;5.17;;;1.67;;
7128;SDS011;3606;52.930;8.644;2023-04-25T09:38:08;2.33;;;1.40;;
7128;SDS011;3606;52.930;8.644;2023-04-25T09:40:38;5.03;;;1.77;;
7128;SDS011;3606;52.930;8.644;2023-04-25T09:43:08;3.87;;;1.70;;
7128;SDS011;3606;52.930;8.644;2023-04-25T09:45:47;4.33;;;1.67;;
7128;SDS011;3606;52.930;8.644;2023-04-25T09:48:20;5.20;;;1.80;;
7128;SDS011;3606;52.930;8.644;2023-04-25T09:53:33;2.13;;;1.73;;
7128;SDS011;3606;52.930;8.644;2023-04-25T09:56:06;3.90;;;1.43;;
7128;SDS011;3606;52.930;8.644;2023-04-25T09:58:35;4.80;;;1.50;;
7128;SDS011;3606;52.930;8.644;2023-04-25T10:01:02;3.27;;;1.40;;
7128;SDS011;3606;52.930;8.644;2023-04-25T10:03:30;8.33;;;2.13;;
7128;SDS011;3606;52.930;8.644;2023-04-25T10:05:58;1.43;;;1.20;;
7128;SDS011;3606;52.930;8.644;2023-04-25T10:08:25;6.10;;;1.80;;
7128;SDS011;3606;52.930;8.644;2023-04-25T10:10:55;10.77;;;2.00;;
7128;SDS011;3606;52.930;8.644;2023-04-25T10:13:23;4.20;;;1.53;;
7128;SDS011;3606;52.930;8.644;2023-04-25T10:15:48;3.20;;;1.80;;
7128;SDS011;3606;52.930;8.644;2023-04-25T10:18:15;4.70;;;1.70;;
7128;SDS011;3606;52.930;8.644;2023-04-25T10:20:43;4.43;;;1.60;;
7128;SDS011;3606;52.930;8.644;2023-04-25T10:23:15;4.57;;;1.90;;
7128;SDS011;3606;52.930;8.644;2023-04-25T10:25:42;6.00;;;1.50;;
7128;SDS011;3606;52.930;8.644;2023-04-25T10:28:08;2.90;;;1.37;;
7128;SDS011;3606;52.930;8.644;2023-04-25T10:30:34;3.30;;;1.40;;
7128;SDS011;3606;52.930;8.644;2023-04-25T10:32:59;3.30;;;1.70;;
7128;SDS011;3606;52.930;8.644;2023-04-25T10:35:26;2.33;;;1.10;;
7128;SDS011;3606;52.930;8.644;2023-04-25T10:40:28;3.47;;;1.63;;
7128;SDS011;3606;52.930;8.644;2023-04-25T10:42:54;6.03;;;1.87;;
7128;SDS011;3606;52.930;8.644;2023-04-25T10:45:21;4.20;;;1.50;;
7128;SDS011;3606;52.930;8.644;2023-04-25T10:47:47;4.47;;;1.47;;
7128;SDS011;3606;52.930;8.644;2023-04-25T10:50:16;1.67;;;1.07;;
7128;SDS011;3606;52.930;8.644;2023-04-25T10:52:42;2.97;;;1.37;;
7128;SDS011;3606;52.930;8.644;2023-04-25T10:55:08;2.53;;;1.37;;
7128;SDS011;3606;52.930;8.644;2023-04-25T10:57:40;2.07;;;1.30;;
7128;SDS011;3606;52.930;8.644;2023-04-25T11:02:44;3.20;;;1.50;;
7128;SDS011;3606;52.930;8.644;2023-04-25T11:05:19;4.37;;;1.87;;
7128;SDS011;3606;52.930;8.644;2023-04-25T11:07:51;5.30;;;1.37;;
7128;SDS011;3606;52.930;8.644;2023-04-25T11:10:19;2.37;;;1.47;;
7128;SDS011;3606;52.930;8.644;2023-04-25T11:12:45;4.17;;;1.40;;
7128;SDS011;3606;52.930;8.644;2023-04-25T11:15:12;5.30;;;1.77;;
7128;SDS011;3606;52.930;8.644;2023-04-25T11:17:38;4.70;;;1.63;;
7128;SDS011;3606;52.930;8.644;2023-04-25T11:20:05;3.70;;;1.53;;
7128;SDS011;3606;52.930;8.644;2023-04-25T11:22:36;2.77;;;1.50;;
7128;SDS011;3606;52.930;8.644;2023-04-25T11:25:10;8.57;;;1.90;;
7128;SDS011;3606;52.930;8.644;2023-04-25T11:27:58;3.20;;;1.70;;
7128;SDS011;3606;52.930;8.644;2023-04-25T11:30:24;3.60;;;1.90;;
7128;SDS011;3606;52.930;8.644;2023-04-25T11:32:50;2.77;;;1.40;;
7128;SDS011;3606;52.930;8.644;2023-04-25T11:35:17;3.60;;;1.50;;
7128;SDS011;3606;52.930;8.644;2023-04-25T11:37:43;2.90;;;1.40;;
7128;SDS011;3606;52.930;8.644;2023-04-25T11:40:10;3.80;;;1.70;;
7128;SDS011;3606;52.930;8.644;2023-04-25T11:42:41;4.67;;;1.70;;
7128;SDS011;3606;52.930;8.644;2023-04-25T11:45:09;5.27;;;2.07;;
7128;SDS011;3606;52.930;8.644;2023-04-25T11:47:35;3.47;;;1.77;;
7128;SDS011;3606;52.930;8.644;2023-04-25T11:50:02;5.00;;;1.90;;
7128;SDS011;3606;52.930;8.644;2023-04-25T11:52:36;3.07;;;1.70;;
7128;SDS011;3606;52.930;8.644;2023-04-25T11:55:06;6.77;;;1.90;;
7128;SDS011;3606;52.930;8.644;2023-04-25T11:57:33;3.90;;;1.33;;
7128;SDS011;3606;52.930;8.644;2023-04-25T12:00:15;5.20;;;1.97;;
7128;SDS011;3606;52.930;8.644;2023-04-25T12:02:43;5.03;;;1.80;;
7128;SDS011;3606;52.930;8.644;2023-04-25T12:05:10;5.00;;;1.60;;
7128;SDS011;3606;52.930;8.644;2023-04-25T12:07:37;4.33;;;1.93;;
7128;SDS011;3606;52.930;8.644;2023-04-25T12:10:07;3.50;;;1.67;;
7128;SDS011;3606;52.930;8.644;2023-04-25T12:12:35;5.73;;;1.87;;
7128;SDS011;3606;52.930;8.644;2023-04-25T12:15:11;3.70;;;1.70;;
7128;SDS011;3606;52.930;8.644;2023-04-25T12:17:44;5.50;;;1.50;;
7128;SDS011;3606;52.930;8.644;2023-04-25T12:20:14;3.97;;;1.60;;
7128;SDS011;3606;52.930;8.644;2023-04-25T12:22:42;2.83;;;1.63;;
7128;SDS011;3606;52.930;8.644;2023-04-25T12:25:10;4.87;;;1.70;;
7128;SDS011;3606;52.930;8.644;2023-04-25T12:27:37;5.90;;;1.77;;
7128;SDS011;3606;52.930;8.644;2023-04-25T12:30:05;6.97;;;2.47;;
7128;SDS011;3606;52.930;8.644;2023-04-25T12:32:32;6.43;;;3.50;;
7128;SDS011;3606;52.930;8.644;2023-04-25T12:34:57;4.73;;;1.97;;
7128;SDS011;3606;52.930;8.644;2023-04-25T12:37:23;3.23;;;1.77;;
7128;SDS011;3606;52.930;8.644;2023-04-25T12:39:48;3.87;;;1.90;;
7128;SDS011;3606;52.930;8.644;2023-04-25T12:42:14;3.10;;;1.10;;
7128;SDS011;3606;52.930;8.644;2023-04-25T12:44:40;2.57;;;1.63;;
7128;SDS011;3606;52.930;8.644;2023-04-25T12:47:06;3.57;;;1.40;;
7128;SDS011;3606;52.930;8.644;2023-04-25T12:49:31;2.67;;;1.63;;
7128;SDS011;3606;52.930;8.644;2023-04-25T12:51:58;3.90;;;1.47;;
7128;SDS011;3606;52.930;8.644;2023-04-25T12:54:24;5.57;;;1.83;;
7128;SDS011;3606;52.930;8.644;2023-04-25T12:56:50;4.27;;;1.50;;
7128;SDS011;3606;52.930;8.644;2023-04-25T12:59:16;6.10;;;1.63;;
7128;SDS011;3606;52.930;8.644;2023-04-25T13:01:42;3.43;;;1.53;;
7128;SDS011;3606;52.930;8.644;2023-04-25T13:04:09;6.37;;;1.70;;
7128;SDS011;3606;52.930;8.644;2023-04-25T13:06:34;2.77;;;1.60;;
7128;SDS011;3606;52.930;8.644;2023-04-25T13:09:00;2.77;;;1.17;;
7128;SDS011;3606;52.930;8.644;2023-04-25T13:11:26;1.80;;;1.43;;
7128;SDS011;3606;52.930;8.644;2023-04-25T13:13:52;5.17;;;1.67;;
7128;SDS011;3606;52.930;8.644;2023-04-25T13:16:17;1.87;;;1.30;;
7128;SDS011;3606;52.930;8.644;2023-04-25T13:18:45;3.83;;;1.30;;
7128;SDS011;3606;52.930;8.644;2023-04-25T13:21:11;3.53;;;1.50;;
7128;SDS011;3606;52.930;8.644;2023-04-25T13:23:37;2.57;;;1.60;;
7128;SDS011;3606;52.930;8.644;2023-04-25T13:26:02;5.67;;;1.47;;
7128;SDS011;3606;52.930;8.644;2023-04-25T13:28:28;2.17;;;1.37;;
7128;SDS011;3606;52.930;8.644;2023-04-25T13:30:54;4.03;;;1.80;;
7128;SDS011;3606;52.930;8.644;2023-04-25T13:33:20;3.07;;;1.63;;
7128;SDS011;3606;52.930;8.644;2023-04-25T13:35:46;3.00;;;1.40;;
7128;SDS011;3606;52.930;8.644;2023-04-25T13:38:19;3.90;;;1.63;;
7128;SDS011;3606;52.930;8.644;2023-04-25T13:40:46;3.27;;;1.90;;
7128;SDS011;3606;52.930;8.644;2023-04-25T13:43:11;2.93;;;1.63;;
7128;SDS011;3606;52.930;8.644;2023-04-25T13:45:37;1.53;;;1.30;;
7128;SDS011;3606;52.930;8.644;2023-04-25T13:48:02;3.23;;;1.40;;
7128;SDS011;3606;52.930;8.644;2023-04-25T13:50:28;1.50;;;1.33;;
7128;SDS011;3606;52.930;8.644;2023-04-25T13:52:54;4.80;;;1.53;;
7128;SDS011;3606;52.930;8.644;2023-04-25T13:55:20;3.43;;;1.43;;
7128;SDS011;3606;52.930;8.644;2023-04-25T13:57:45;3.87;;;1.73;;
7128;SDS011;3606;52.930;8.644;2023-04-25T14:00:11;3.63;;;1.53;;
7128;SDS011;3606;52.930;8.644;2023-04-25T14:02:38;3.20;;;1.40;;
7128;SDS011;3606;52.930;8.644;2023-04-25T14:05:04;3.13;;;1.33;;
7128;SDS011;3606;52.930;8.644;2023-04-25T14:07:30;1.63;;;1.03;;
7128;SDS011;3606;52.930;8.644;2023-04-25T14:09:56;1.80;;;1.33;;
7128;SDS011;3606;52.930;8.644;2023-04-25T14:12:25;3.17;;;1.70;;
7128;SDS011;3606;52.930;8.644;2023-04-25T14:14:51;1.57;;;1.30;;
7128;SDS011;3606;52.930;8.644;2023-04-25T14:17:17;5.57;;;1.60;;
7128;SDS011;3606;52.930;8.644;2023-04-25T14:19:43;3.63;;;1.43;;
7128;SDS011;3606;52.930;8.644;2023-04-25T14:22:10;3.57;;;1.87;;
7128;SDS011;3606;52.930;8.644;2023-04-25T14:24:36;3.83;;;1.63;;
7128;SDS011;3606;52.930;8.644;2023-04-25T14:27:02;2.57;;;1.40;;
7128;SDS011;3606;52.930;8.644;2023-04-25T14:29:29;1.90;;;1.53;;
7128;SDS011;3606;52.930;8.644;2023-04-25T14:31:54;2.90;;;1.40;;
7128;SDS011;3606;52.930;8.644;2023-04-25T14:34:22;2.43;;;1.43;;
7128;SDS011;3606;52.930;8.644;2023-04-25T14:36:48;6.97;;;1.77;;
7128;SDS011;3606;52.930;8.644;2023-04-25T14:39:14;1.90;;;1.47;;
7128;SDS011;3606;52.930;8.644;2023-04-25T14:41:40;3.83;;;1.37;;
7128;SDS011;3606;52.930;8.644;2023-04-25T14:44:05;5.13;;;1.17;;
7128;SDS011;3606;52.930;8.644;2023-04-25T14:46:31;4.10;;;1.67;;
7128;SDS011;3606;52.930;8.644;2023-04-25T14:48:57;3.53;;;1.50;;
7128;SDS011;3606;52.930;8.644;2023-04-25T14:51:22;4.47;;;1.90;;
7128;SDS011;3606;52.930;8.644;2023-04-25T14:53:48;3.90;;;1.50;;
7128;SDS011;3606;52.930;8.644;2023-04-25T14:56:14;3.07;;;1.27;;
7128;SDS011;3606;52.930;8.644;2023-04-25T14:58:39;1.87;;;1.20;;
7128;SDS011;3606;52.930;8.644;2023-04-25T15:01:05;3.47;;;1.20;;
7128;SDS011;3606;52.930;8.644;2023-04-25T15:03:31;5.03;;;2.07;;
7128;SDS011;3606;52.930;8.644;2023-04-25T15:05:57;3.10;;;1.27;;
7128;SDS011;3606;52.930;8.644;2023-04-25T15:08:23;8.30;;;4.80;;
7128;SDS011;3606;52.930;8.644;2023-04-25T15:10:48;2.53;;;1.37;;
7128;SDS011;3606;52.930;8.644;2023-04-25T15:13:17;1.40;;;1.17;;
7128;SDS011;3606;52.930;8.644;2023-04-25T15:15:44;2.07;;;1.33;;
7128;SDS011;3606;52.930;8.644;2023-04-25T15:18:09;4.33;;;1.73;;
7128;SDS011;3606;52.930;8.644;2023-04-25T15:20:35;8.17;;;1.90;;
7128;SDS011;3606;52.930;8.644;2023-04-25T15:23:01;2.80;;;1.50;;
7128;SDS011;3606;52.930;8.644;2023-04-25T15:25:28;2.13;;;1.30;;
7128;SDS011;3606;52.930;8.644;2023-04-25T15:27:53;2.53;;;1.40;;
7128;SDS011;3606;52.930;8.644;2023-04-25T15:30:19;6.70;;;1.90;;
7128;SDS011;3606;52.930;8.644;2023-04-25T15:32:45;2.60;;;1.80;;